Time,TemperatureF,DewpointF,PressureIn,WindDirection,WindDirectionDegrees,WindSpeedMPH,WindSpeedGustMPH,Humidity,HourlyPrecipIn,Conditions,Clouds,dailyrainin,SoftwareType,DateUTC
2013-11-02 00:00:00,48.0,-99.9,-100.00,West,268,25.0,34.0,-999,-99.99,,,-99.99,,2013-11-02 06:00:00,
2013-11-02 00:43:00,48.0,-99.9,-100.00,West,268,25.0,34.0,-999,-99.99,,,-99.99,,2013-11-02 06:43:00,
2013-11-02 00:52:00,48.0,-99.9,-100.00,West,268,25.0,34.0,-999,-99.99,,,-99.99,,2013-11-02 06:52:00,
2013-11-02 01:42:00,47.0,-99.9,-100.00,WSW,258,22.0,29.0,-999,-99.99,,,-99.99,,2013-11-02 07:42:00,
2013-11-02 02:22:00,47.0,-99.9,-100.00,WSW,246,25.0,32.0,-999,-99.99,,,-99.99,,2013-11-02 08:22:00,
2013-11-02 02:32:00,47.0,-99.9,-100.00,WSW,246,25.0,32.0,-999,-99.99,,,-99.99,,2013-11-02 08:32:00,
2013-11-02 11:00:00,54.0,-99.9,-100.00,West,271,31.0,38.0,-999,-99.99,,,-99.99,,2013-11-02 17:00:00,
2013-11-02 11:53:00,54.0,-99.9,-100.00,West,271,31.0,38.0,-999,-99.99,,,-99.99,,2013-11-02 17:53:00,
2013-11-02 12:00:00,57.0,-99.9,-100.00,West,266,22.0,28.0,-999,-99.99,,,-99.99,,2013-11-02 18:00:00,
2013-11-02 12:42:00,57.0,-99.9,-100.00,West,266,22.0,28.0,-999,-99.99,,,-99.99,,2013-11-02 18:42:00,
2013-11-02 12:53:00,57.0,-99.9,-100.00,West,266,22.0,28.0,-999,-99.99,,,-99.99,,2013-11-02 18:53:00,
2013-11-02 13:00:00,57.0,-99.9,-100.00,West,273,21.0,28.0,-999,-99.99,,,-99.99,,2013-11-02 19:00:00,
2013-11-02 13:42:00,57.0,-99.9,-100.00,West,273,21.0,28.0,-999,-99.99,,,-99.99,,2013-11-02 19:42:00,
2013-11-02 13:52:00,57.0,-99.9,-100.00,West,273,21.0,28.0,-999,-99.99,,,-99.99,,2013-11-02 19:52:00,
2013-11-02 14:00:00,59.0,-99.9,-100.00,WNW,291,20.0,28.0,-999,-99.99,,,-99.99,,2013-11-02 20:00:00,
2013-11-02 14:22:00,59.0,-99.9,-100.00,WNW,291,20.0,28.0,-999,-99.99,,,-99.99,,2013-11-02 20:22:00,
2013-11-02 14:32:00,59.0,-99.9,-100.00,WNW,291,20.0,28.0,-999,-99.99,,,-99.99,,2013-11-02 20:32:00,
2013-11-02 14:43:00,59.0,-99.9,-100.00,WNW,291,20.0,28.0,-999,-99.99,,,-99.99,,2013-11-02 20:43:00,
2013-11-02 14:53:00,59.0,-99.9,-100.00,WNW,291,20.0,28.0,-999,-99.99,,,-99.99,,2013-11-02 20:53:00,
2013-11-02 15:00:00,60.0,-99.9,-100.00,WNW,294,15.0,19.0,-999,-99.99,,,-99.99,,2013-11-02 21:00:00,
2013-11-02 15:22:00,60.0,-99.9,-100.00,WNW,294,15.0,19.0,-999,-99.99,,,-99.99,,2013-11-02 21:22:00,
2013-11-02 15:33:00,60.0,-99.9,-100.00,WNW,294,15.0,19.0,-999,-99.99,,,-99.99,,2013-11-02 21:33:00,
2013-11-02 15:44:00,60.0,-99.9,-100.00,WNW,294,15.0,19.0,-999,-99.99,,,-99.99,,2013-11-02 21:44:00,
2013-11-02 15:54:00,60.0,-99.9,-100.00,WNW,294,15.0,19.0,-999,-99.99,,,-99.99,,2013-11-02 21:54:00,
2013-11-02 17:00:00,55.0,-99.9,-100.00,South,180,9.0,14.0,-999,-99.99,,,-99.99,,2013-11-02 23:00:00,
2013-11-02 17:42:00,55.0,-99.9,-100.00,South,180,9.0,14.0,-999,-99.99,,,-99.99,,2013-11-02 23:42:00,
2013-11-02 17:52:00,55.0,-99.9,-100.00,South,180,9.0,14.0,-999,-99.99,,,-99.99,,2013-11-02 23:52:00,
2013-11-02 18:00:00,55.0,-99.9,-100.00,West,263,11.0,17.0,-999,-99.99,,,-99.99,,2013-11-03 00:00:00,
2013-11-02 18:22:00,55.0,-99.9,-100.00,West,263,11.0,17.0,-999,-99.99,,,-99.99,,2013-11-03 00:22:00,
2013-11-02 18:33:00,55.0,-99.9,-100.00,West,263,11.0,17.0,-999,-99.99,,,-99.99,,2013-11-03 00:33:00,
2013-11-02 18:42:00,55.0,-99.9,-100.00,West,263,11.0,17.0,-999,-99.99,,,-99.99,,2013-11-03 00:42:00,
2013-11-02 18:52:00,55.0,-99.9,-100.00,West,263,11.0,17.0,-999,-99.99,,,-99.99,,2013-11-03 00:52:00,
2013-11-02 19:00:00,54.0,-99.9,-100.00,West,261,18.0,23.0,-999,-99.99,,,-99.99,,2013-11-03 01:00:00,
2013-11-02 19:42:00,54.0,-99.9,-100.00,West,261,18.0,23.0,-999,-99.99,,,-99.99,,2013-11-03 01:42:00,
2013-11-02 19:52:00,54.0,-99.9,-100.00,West,261,18.0,23.0,-999,-99.99,,,-99.99,,2013-11-03 01:52:00,
2013-11-02 20:00:00,53.0,-99.9,-100.00,WSW,240,10.0,12.0,-999,-99.99,,,-99.99,,2013-11-03 02:00:00,
2013-11-02 20:43:00,53.0,-99.9,-100.00,WSW,240,10.0,12.0,-999,-99.99,,,-99.99,,2013-11-03 02:43:00,
2013-11-02 20:52:00,53.0,-99.9,-100.00,WSW,240,10.0,12.0,-999,-99.99,,,-99.99,,2013-11-03 02:52:00,
2013-11-02 21:00:00,-999.0,-99.9,-100.00,SSW,208,8.0,9.0,-999,-99.99,,,-99.99,,2013-11-03 03:00:00,
2013-11-02 22:00:00,40.0,-99.9,-100.00,South,189,6.0,7.0,-999,-99.99,,,-99.99,,2013-11-03 04:00:00,
2013-11-02 22:44:00,40.0,-99.9,-100.00,South,189,6.0,7.0,-999,-99.99,,,-99.99,,2013-11-03 04:44:00,
2013-11-02 22:53:00,40.0,-99.9,-100.00,South,189,6.0,7.0,-999,-99.99,,,-99.99,,2013-11-03 04:53:00,
2013-11-02 23:00:00,42.0,-99.9,-100.00,WSW,255,7.0,9.0,-999,-99.99,,,-99.99,,2013-11-03 05:00:00,
2013-11-02 23:44:00,42.0,-99.9,-100.00,WSW,255,7.0,9.0,-999,-99.99,,,-99.99,,2013-11-03 05:44:00,
2013-11-02 23:53:00,42.0,-99.9,-100.00,WSW,255,7.0,9.0,-999,-99.99,,,-99.99,,2013-11-03 05:53:00,